Arcata, CA (95519)

12:22 AM PDT on September 22, 2014 (GMT -0700)
APRSWXNET Arcata CA US | Change Station
CLOSE
Current Station
Personal Weather Station
Location: Arcata, CA
Elevation: 183 ft
Nearby Weather Stations

Elev 183 ft 40.88 °N, 124.08 °W | Updated 21 minutes ago

Overcast
Overcast
61.0 °F
Feels Like 61.0 °F
N
0.0
Wind Variable Wind from SSE
Gusts 0.0 mph

Today
High -- | Low -- °F
--% Chance of Precip.
Yesterday
High -- | Low -- °F
Precip. -- in
7:03 AM 7:13 PM
Waning Crescent, 4% visible
Pressure 30.04 in
Visibility 8.0 miles
Clouds Few 800 ft
Mostly Cloudy 1200 ft
Overcast 1700 ft
Dew Point 60.0 °F
Humidity 95%
Rainfall 0.00 in
Snow Depth Not available.
UV 0 out of 12
Pollen 5.80 out of 12
Air Quality Not available.
Flu Activity Not available.
METAR KACV 220653Z AUTO 00000KT 8SM FEW008 BKN012 OVC017 16/14 A3002 RMK AO2 SLP170 T01610144 $

More Conditions Fewer Conditions

Pressure 30.04 in
Visibility 8.0 miles
Clouds Few 800 ft
Mostly Cloudy 1200 ft
Overcast 1700 ft
Dew Point 60.0 °F
Humidity 95%
Rainfall 0.00 in
Snow Depth Not available.
UV 0 out of 12
Pollen 5.80 out of 12
Air Quality Not available.
Flu Activity Not available.
METAR KACV 220653Z AUTO 00000KT 8SM FEW008 BKN012 OVC017 16/14 A3002 RMK AO2 SLP170 T01610144 $

More Conditions Fewer Conditions

10-Day Weather Forecast

Almanac

Astronomy

Sep. 22, 2014 Rise Set
Actual Time 7:03 AM PDT 7:13 PM PDT
Civil Twilight 6:36 AM PDT 7:40 PM PDT
Nautical Twilight 6:04 AM PDT 8:12 PM PDT
Astronomical Twilight 5:31 AM PDT 8:45 PM PDT
Moon 5:37 AM PDT 6:24 PM PDT
Length of Visible Light 13h 04m
Length of Day
12h 09m
Tomorrow will be 2m 42s shorter.
Waning Crescent, 4% of the Moon is Illuminated
Today
Waning Crescent
Sep 24
New
Oct 1
First Quarter
Oct 8
Full
Oct 15
Last Quarter

Community

WunderPhotos

Upload Photos

1,755,392 photos uploaded!

Nearby

Snow Depth

Station Depth Elevation
Hagan's Meadow 0 in 8000 ft
Summit Meadow 1 in 9122 ft
Heavenly Valley 0 in 8850 ft
Tahoe City Cross 0 in 6750 ft
Spratt Creek 1 in 6200 ft

Earthquake Activity

City Distance Mag. Time & Date
Eureka, California 11 miles 3.1 1:33 PM PDT
2014-09-20
Minimum magnitude displayed is 2.5.

Coastal Water Temperatures

Place Temperature
North Spit, CA 61.0 °F
Crescent City, CA 63.0 °F

Nearby Weather Stations